Tijucas, Brazil
Current Conditions -  °F | °C
As of 6:00 AM on Tuesday 21 Oct 2014 (Local Time) from SBNF Reporting Station
Broken Clouds Broken Clouds  
Wind Chill: 66°   Ceiling: 6000
Heat Index: 66°   Visibility: 6mi
Dew Point: 52°   Wind: 5mph
Humidity: 60%   Direction: 220°SW
Pressure: 30.12"   Gusts: NA
Location:  27.21°S, 48.61°W
Report Text: SBNF 210800Z 22004KT 9999 FEW030 BKN060 19/11 Q1020
Loading
Personal Weather Stations






























Interactive Weather Map
Tropical Storm Tracking
New forecast layout! Learn more

10-Day Weather Forecast

Advertisements
Track Severe Weather on mobile